createdAt,value
2023-05-01T00:01:40.354Z,15.60
2023-05-01T00:04:06.929Z,16.13
2023-05-01T00:06:33.983Z,16.38
2023-05-01T00:09:00.407Z,15.93
2023-05-01T00:11:26.844Z,16.50
2023-05-01T00:13:54.417Z,16.89
2023-05-01T00:16:20.996Z,16.32
2023-05-01T00:18:47.457Z,16.79
2023-05-01T00:21:13.893Z,16.81
2023-05-01T00:23:40.317Z,16.65
2023-05-01T00:26:07.498Z,16.79
2023-05-01T00:28:33.882Z,16.25
2023-05-01T00:31:00.297Z,15.79
2023-05-01T00:33:26.747Z,16.57
2023-05-01T00:35:53.109Z,16.04
2023-05-01T00:38:19.527Z,16.52
2023-05-01T00:40:46.998Z,16.41
2023-05-01T00:43:13.740Z,16.48
2023-05-01T00:45:43.271Z,16.63
2023-05-01T00:48:10.661Z,16.58
2023-05-01T00:50:37.664Z,16.48
2023-05-01T00:53:04.269Z,15.65
2023-05-01T00:55:33.008Z,16.26
2023-05-01T00:58:01.004Z,16.34
2023-05-01T01:00:27.477Z,15.41
2023-05-01T01:02:53.918Z,15.87
2023-05-01T01:05:24.385Z,16.13
2023-05-01T01:08:10.996Z,14.97
2023-05-01T01:10:49.523Z,16.04
2023-05-01T01:13:30.690Z,16.02
2023-05-01T01:16:15.849Z,15.87
2023-05-01T01:18:53.696Z,15.95
2023-05-01T01:21:27.567Z,15.55
2023-05-01T01:24:18.979Z,15.90
2023-05-01T01:27:10.225Z,15.88
2023-05-01T01:30:32.557Z,15.87
2023-05-01T01:33:32.892Z,15.93
2023-05-01T01:36:06.922Z,15.95
2023-05-01T01:38:42.715Z,15.90
2023-05-01T01:41:14.695Z,15.35
2023-05-01T01:43:47.618Z,15.11
2023-05-01T01:46:17.640Z,15.80
2023-05-01T01:48:48.888Z,15.02
2023-05-01T01:51:19.126Z,15.97
2023-05-01T01:53:50.434Z,15.00
2023-05-01T01:56:18.634Z,15.98
2023-05-01T01:58:46.096Z,15.87
2023-05-01T02:01:15.121Z,15.24
2023-05-01T02:03:44.076Z,15.93
2023-05-01T02:06:12.923Z,15.86
2023-05-01T02:08:42.437Z,15.67
2023-05-01T02:11:11.178Z,15.30
2023-05-01T02:13:39.033Z,15.09
2023-05-01T02:16:07.058Z,14.95
2023-05-01T02:18:34.554Z,14.78
2023-05-01T02:21:03.308Z,15.48
2023-05-01T02:23:31.767Z,14.98
2023-05-01T02:26:03.006Z,15.51
2023-05-01T02:28:30.164Z,15.59
2023-05-01T02:30:57.497Z,14.97
2023-05-01T02:33:23.949Z,15.39
2023-05-01T02:35:50.594Z,15.50
2023-05-01T02:38:17.368Z,14.62
2023-05-01T02:40:47.185Z,14.58
2023-05-01T02:43:18.302Z,14.80
2023-05-01T02:45:45.276Z,14.63
2023-05-01T02:48:15.846Z,14.54
2023-05-01T02:50:44.525Z,15.12
2023-05-01T02:53:13.043Z,15.32
2023-05-01T02:55:39.633Z,14.85
2023-05-01T02:58:06.247Z,14.46
2023-05-01T03:00:32.676Z,14.38
2023-05-01T03:02:59.134Z,14.30
2023-05-01T03:05:25.642Z,14.01
2023-05-01T03:07:53.246Z,14.20
2023-05-01T03:10:19.706Z,14.39
2023-05-01T03:12:46.047Z,13.74
2023-05-01T03:15:13.224Z,14.82
2023-05-01T03:17:39.644Z,14.91
2023-05-01T03:20:09.417Z,14.69
2023-05-01T03:22:36.062Z,14.48
2023-05-01T03:25:04.271Z,14.02
2023-05-01T03:27:30.982Z,14.68
2023-05-01T03:29:57.571Z,13.97
2023-05-01T03:32:24.314Z,14.69
2023-05-01T03:34:50.775Z,14.20
2023-05-01T03:37:17.182Z,14.55
2023-05-01T03:39:43.562Z,13.89
2023-05-01T03:42:09.985Z,13.54
2023-05-01T03:44:36.951Z,13.47
2023-05-01T03:47:03.449Z,13.80
2023-05-01T03:49:29.834Z,14.30
2023-05-01T03:51:56.630Z,14.38
2023-05-01T03:54:23.158Z,14.02
2023-05-01T03:56:49.473Z,14.42
2023-05-01T03:59:15.852Z,14.03
2023-05-01T04:01:42.345Z,14.06
2023-05-01T04:04:09.045Z,14.36
2023-05-01T04:06:36.169Z,13.81
2023-05-01T04:09:03.670Z,14.28
2023-05-01T04:11:30.022Z,14.43
2023-05-01T04:13:56.473Z,14.18
2023-05-01T04:16:22.938Z,13.49
2023-05-01T04:18:49.455Z,14.06
2023-05-01T04:21:17.542Z,14.19
2023-05-01T04:23:44.076Z,14.09
2023-05-01T04:26:10.678Z,13.61
2023-05-01T04:28:37.173Z,13.76
2023-05-01T04:31:03.962Z,14.24
2023-05-01T04:33:30.447Z,13.78
2023-05-01T04:35:56.906Z,14.40
2023-05-01T04:38:23.571Z,13.33
2023-05-01T04:40:49.881Z,14.48
2023-05-01T04:43:16.364Z,14.63
2023-05-01T04:45:42.882Z,13.99
2023-05-01T04:48:09.407Z,14.20
2023-05-01T04:50:35.804Z,14.78
2023-05-01T04:53:02.155Z,14.62
2023-05-01T04:55:30.902Z,14.80
2023-05-01T04:57:57.694Z,14.95
2023-05-01T05:00:24.211Z,14.78
2023-05-01T05:02:50.616Z,14.39
2023-05-01T05:05:16.996Z,15.19
2023-05-01T05:07:43.315Z,15.25
2023-05-01T05:10:09.932Z,14.70
2023-05-01T05:12:36.323Z,15.22
2023-05-01T05:15:03.219Z,15.34
2023-05-01T05:17:29.614Z,14.72
2023-05-01T05:19:56.180Z,15.58
2023-05-01T05:22:23.572Z,15.56
2023-05-01T05:24:55.633Z,15.93
2023-05-01T05:27:22.048Z,15.94
2023-05-01T05:29:48.366Z,15.59
2023-05-01T05:32:14.807Z,15.91
2023-05-01T05:34:41.221Z,15.76
2023-05-01T05:37:08.322Z,15.98
2023-05-01T05:39:35.080Z,15.98
2023-05-01T05:42:01.462Z,15.34
2023-05-01T05:44:27.852Z,15.49
2023-05-01T05:46:54.200Z,15.98
2023-05-01T05:49:20.538Z,16.03
2023-05-01T05:51:46.878Z,16.11
2023-05-01T05:54:13.202Z,16.14
2023-05-01T05:56:39.541Z,16.09
2023-05-01T05:59:06.487Z,16.29
2023-05-01T06:01:32.883Z,16.52
2023-05-01T06:03:59.258Z,16.00
2023-05-01T06:06:26.287Z,16.34
2023-05-01T06:08:52.825Z,16.48
2023-05-01T06:11:21.433Z,16.35
2023-05-01T06:13:47.823Z,15.78
2023-05-01T06:16:15.175Z,16.40
2023-05-01T06:18:42.867Z,16.66
2023-05-01T06:21:10.297Z,16.52
2023-05-01T06:23:37.105Z,16.60
2023-05-01T06:26:03.650Z,16.56
2023-05-01T06:28:30.030Z,16.69
2023-05-01T06:30:57.706Z,16.57
2023-05-01T06:33:24.095Z,16.28
2023-05-01T06:35:50.761Z,15.96
2023-05-01T06:38:17.241Z,16.33
2023-05-01T06:40:46.903Z,16.71
2023-05-01T06:43:13.354Z,16.97
2023-05-01T06:45:41.244Z,16.19
2023-05-01T06:48:07.721Z,16.55
2023-05-01T06:50:34.179Z,16.38
2023-05-01T06:53:02.570Z,16.46
2023-05-01T06:55:34.540Z,17.16
2023-05-01T06:58:04.868Z,16.89
2023-05-01T07:00:41.863Z,17.13
2023-05-01T07:03:10.785Z,16.74
2023-05-01T07:05:37.290Z,16.48
2023-05-01T07:08:03.813Z,16.63
2023-05-01T07:10:32.934Z,16.56
2023-05-01T07:12:59.877Z,16.81
2023-05-01T07:15:26.319Z,17.06
2023-05-01T07:17:52.755Z,16.61
2023-05-01T07:20:19.210Z,16.87
2023-05-01T07:22:45.846Z,17.46
2023-05-01T07:25:12.191Z,17.20
2023-05-01T07:27:38.593Z,16.89
2023-05-01T07:30:05.741Z,17.10
2023-05-01T07:32:33.000Z,17.35
2023-05-01T07:34:59.622Z,17.89
2023-05-01T07:37:26.994Z,18.16
2023-05-01T07:39:53.355Z,18.23
2023-05-01T07:42:19.770Z,18.14
2023-05-01T07:44:46.158Z,17.72
2023-05-01T07:47:12.527Z,17.62
2023-05-01T07:49:38.964Z,17.96
2023-05-01T07:52:07.608Z,18.19
2023-05-01T07:54:34.536Z,18.00
2023-05-01T07:57:02.019Z,18.57
2023-05-01T07:59:28.649Z,18.58
2023-05-01T08:01:55.054Z,18.77
2023-05-01T08:04:23.343Z,18.98
2023-05-01T08:06:50.976Z,19.08
2023-05-01T08:09:17.777Z,19.15
2023-05-01T08:11:44.173Z,19.03
2023-05-01T08:14:10.953Z,18.82
2023-05-01T08:16:37.544Z,18.94
2023-05-01T08:19:04.198Z,19.76
2023-05-01T08:21:31.249Z,18.88
2023-05-01T08:23:57.644Z,19.82
2023-05-01T08:26:24.065Z,19.41
2023-05-01T08:28:50.856Z,20.03
2023-05-01T08:31:17.437Z,19.98
2023-05-01T08:37:06.584Z,19.79
2023-05-01T08:39:32.994Z,20.45
2023-05-01T08:42:05.894Z,20.67
2023-05-01T08:48:58.385Z,20.44
2023-05-01T08:51:30.057Z,20.37
2023-05-01T08:54:15.385Z,20.42
2023-05-01T08:57:07.235Z,20.33
2023-05-01T09:00:38.009Z,20.98
2023-05-01T09:03:05.584Z,21.17
2023-05-01T09:05:33.361Z,20.79
2023-05-01T09:08:01.888Z,21.01
2023-05-01T09:10:41.288Z,20.98
2023-05-01T09:13:37.761Z,20.87
2023-05-01T09:22:35.450Z,21.22
2023-05-01T09:25:03.454Z,20.49
2023-05-01T09:27:35.045Z,20.75
2023-05-01T09:30:01.552Z,20.84
2023-05-01T09:32:28.412Z,21.30
2023-05-01T09:35:18.717Z,21.44
2023-05-01T09:38:46.016Z,21.74
2023-05-01T09:48:40.393Z,22.27
2023-05-01T09:51:59.932Z,22.65
2023-05-01T09:54:27.144Z,22.36
2023-05-01T09:57:38.484Z,22.45
2023-05-01T10:00:10.295Z,22.04
2023-05-01T10:02:37.529Z,21.86
2023-05-01T10:05:04.553Z,21.94
2023-05-01T10:07:31.084Z,22.44
2023-05-01T10:10:00.746Z,22.83
2023-05-01T10:15:38.792Z,23.26
2023-05-01T10:22:04.253Z,23.82
2023-05-01T10:24:32.408Z,23.17
2023-05-01T10:27:03.062Z,23.56
2023-05-01T10:29:30.009Z,23.62
2023-05-01T10:31:56.568Z,23.95
2023-05-01T10:34:26.375Z,23.46
2023-05-01T10:37:07.009Z,23.91
2023-05-01T10:39:35.496Z,23.64
2023-05-01T10:42:14.263Z,23.93
2023-05-01T10:44:42.372Z,24.17
2023-05-01T10:47:24.190Z,24.89
2023-05-01T10:50:07.895Z,25.52
2023-05-01T10:53:15.514Z,26.51
2023-05-01T10:55:46.709Z,27.76
2023-05-01T10:58:34.703Z,28.58
2023-05-01T11:01:45.198Z,29.60
2023-05-01T11:04:24.540Z,30.87
2023-05-01T11:07:08.526Z,28.96
2023-05-01T11:09:49.263Z,29.04
2023-05-01T11:12:36.651Z,28.27
2023-05-01T11:15:04.240Z,28.85
2023-05-01T11:17:40.106Z,29.13
2023-05-01T11:20:30.450Z,28.58
2023-05-01T11:22:57.453Z,28.36
2023-05-01T11:25:27.534Z,28.41
2023-05-01T11:27:58.705Z,28.03
2023-05-01T11:30:25.819Z,28.49
2023-05-01T11:32:52.624Z,27.78
2023-05-01T11:35:20.016Z,27.72
2023-05-01T11:37:47.475Z,27.70
2023-05-01T11:40:27.739Z,28.18
2023-05-01T11:43:08.735Z,27.72
2023-05-01T11:45:36.742Z,27.96
2023-05-01T11:48:04.814Z,27.09
2023-05-01T11:50:36.781Z,25.96
2023-05-01T11:53:11.635Z,25.35
2023-05-01T11:55:41.005Z,24.87
2023-05-01T11:58:07.573Z,24.53
2023-05-01T12:00:50.331Z,23.89
2023-05-01T12:03:16.894Z,23.10
2023-05-01T12:05:44.906Z,22.87
2023-05-01T12:08:21.024Z,23.34
2023-05-01T12:10:56.090Z,23.65
2023-05-01T12:13:23.921Z,24.06
2023-05-01T12:15:53.018Z,25.38
2023-05-01T12:18:21.377Z,25.85
2023-05-01T12:20:52.764Z,25.86
2023-05-01T12:23:29.571Z,26.42
2023-05-01T12:25:56.037Z,26.18
2023-05-01T12:28:22.605Z,26.12
2023-05-01T12:30:49.540Z,28.01
2023-05-01T12:33:20.567Z,28.74
2023-05-01T12:35:49.592Z,30.04
2023-05-01T12:38:23.380Z,29.94
2023-05-01T12:40:55.636Z,29.72
2023-05-01T12:43:31.309Z,29.74
2023-05-01T12:45:58.028Z,30.64
2023-05-01T12:48:25.088Z,30.38
2023-05-01T12:50:54.860Z,29.78
2023-05-01T12:53:26.957Z,28.95
2023-05-01T12:55:55.613Z,27.45
2023-05-01T12:58:22.721Z,26.99
2023-05-01T13:00:50.427Z,26.01
2023-05-01T13:03:23.425Z,26.11
2023-05-01T13:05:57.715Z,26.06
2023-05-01T13:08:37.538Z,25.88
2023-05-01T13:11:11.029Z,24.86
2023-05-01T13:13:39.843Z,24.85
2023-05-01T13:16:16.789Z,24.12
2023-05-01T13:18:59.302Z,23.20
2023-05-01T13:21:26.682Z,23.24
2023-05-01T13:23:55.816Z,21.76
2023-05-01T13:26:40.551Z,22.44
2023-05-01T13:29:07.147Z,22.23
2023-05-01T13:31:33.545Z,22.12
2023-05-01T13:34:00.868Z,22.41
2023-05-01T13:36:32.198Z,21.83
2023-05-01T13:38:59.370Z,21.31
2023-05-01T13:41:27.263Z,21.33
2023-05-01T13:43:55.430Z,21.30
2023-05-01T13:46:23.854Z,21.34
2023-05-01T13:48:50.714Z,21.45
2023-05-01T13:51:23.080Z,21.13
2023-05-01T13:53:50.308Z,20.87
2023-05-01T13:56:16.832Z,20.86
2023-05-01T13:58:43.208Z,21.21
2023-05-01T14:01:15.719Z,21.27
2023-05-01T14:03:43.103Z,21.50
2023-05-01T14:06:20.168Z,21.45
2023-05-01T14:08:48.238Z,21.47
2023-05-01T14:11:15.169Z,20.97
2023-05-01T14:13:43.777Z,20.39
2023-05-01T14:16:20.966Z,20.86
2023-05-01T14:18:48.005Z,21.25
2023-05-01T14:21:15.988Z,20.49
2023-05-01T14:23:42.811Z,21.19
2023-05-01T14:26:11.364Z,21.38
2023-05-01T14:28:44.999Z,20.79
2023-05-01T14:31:30.086Z,20.65
2023-05-01T14:34:02.810Z,21.41
2023-05-01T14:36:31.543Z,21.74
2023-05-01T14:38:59.190Z,21.94
2023-05-01T14:41:25.850Z,21.93
2023-05-01T14:43:55.167Z,21.81
2023-05-01T14:46:32.738Z,22.01
2023-05-01T14:49:01.094Z,21.77
2023-05-01T14:51:29.194Z,22.48
2023-05-01T14:53:55.892Z,21.72
2023-05-01T14:56:23.034Z,21.72
2023-05-01T14:58:49.627Z,21.59
2023-05-01T15:01:16.956Z,20.40
2023-05-01T15:03:43.801Z,20.15
2023-05-01T15:06:10.557Z,20.65
2023-05-01T15:08:38.100Z,20.12
2023-05-01T15:11:04.615Z,19.57
2023-05-01T15:13:31.794Z,20.01
2023-05-01T15:15:58.598Z,20.31
2023-05-01T15:18:25.205Z,20.45
2023-05-01T15:20:51.637Z,20.08
2023-05-01T15:23:18.006Z,19.52
2023-05-01T15:25:44.442Z,18.25
2023-05-01T15:28:13.393Z,17.59
2023-05-01T15:30:44.266Z,17.33
2023-05-01T15:33:10.656Z,17.24
2023-05-01T15:35:37.191Z,17.44
2023-05-01T15:38:04.142Z,17.57
2023-05-01T15:40:30.561Z,18.03
2023-05-01T15:42:56.915Z,17.33
2023-05-01T15:45:23.423Z,18.18
2023-05-01T15:47:49.957Z,18.58
2023-05-01T15:50:16.416Z,18.46
2023-05-01T15:52:42.777Z,18.47
2023-05-01T15:55:09.312Z,18.24
2023-05-01T15:57:35.695Z,18.44
2023-05-01T16:05:17.069Z,18.87
2023-05-01T16:14:49.914Z,18.75
2023-05-01T16:21:04.841Z,18.95
2023-05-01T16:23:46.554Z,18.19
2023-05-01T16:26:13.439Z,18.48
2023-05-01T16:28:41.449Z,18.45
2023-05-01T16:31:16.035Z,18.95
2023-05-01T16:33:53.783Z,18.43
2023-05-01T16:36:24.549Z,18.70
2023-05-01T16:42:03.254Z,18.88
2023-05-01T16:44:30.050Z,19.07
2023-05-01T16:47:50.836Z,18.15
2023-05-01T16:50:23.764Z,18.65
2023-05-01T16:53:09.059Z,18.92
2023-05-01T16:55:36.009Z,18.85
2023-05-01T16:58:02.334Z,18.60
2023-05-01T17:00:29.306Z,18.77
2023-05-01T17:02:58.810Z,18.50
2023-05-01T17:05:25.630Z,19.26
2023-05-01T17:07:52.040Z,18.99
2023-05-01T17:10:18.430Z,18.41
2023-05-01T17:12:44.770Z,19.02
2023-05-01T17:15:11.434Z,18.41
2023-05-01T17:17:38.029Z,19.15
2023-05-01T17:20:25.062Z,18.35
2023-05-01T17:22:51.786Z,18.71
2023-05-01T17:25:18.295Z,18.44
2023-05-01T17:27:44.729Z,18.93
2023-05-01T17:30:11.418Z,18.64
2023-05-01T17:32:37.985Z,17.81
2023-05-01T17:35:05.640Z,18.43
2023-05-01T17:37:32.162Z,18.73
2023-05-01T17:39:58.815Z,18.24
2023-05-01T17:42:26.232Z,18.02
2023-05-01T17:44:52.774Z,18.06
2023-05-01T17:47:22.193Z,17.54
2023-05-01T17:49:52.246Z,17.46
2023-05-01T17:52:18.754Z,17.92
2023-05-01T17:54:45.193Z,18.04
2023-05-01T17:57:11.861Z,18.21
2023-05-01T17:59:38.233Z,17.14
2023-05-01T18:02:05.060Z,17.20
2023-05-01T18:04:31.612Z,17.44
2023-05-01T18:06:58.335Z,17.59
2023-05-01T18:09:24.770Z,17.53
2023-05-01T18:11:53.525Z,16.50
2023-05-01T18:14:20.098Z,17.31
2023-05-01T18:16:46.773Z,16.60
2023-05-01T18:19:13.485Z,17.03
2023-05-01T18:21:40.056Z,17.17
2023-05-01T18:24:06.935Z,16.90
2023-05-01T18:26:36.320Z,17.18
2023-05-01T18:29:06.437Z,16.90
2023-05-01T18:31:38.215Z,16.31
2023-05-01T18:34:06.579Z,17.02
2023-05-01T18:36:41.008Z,16.76
2023-05-01T18:39:07.569Z,17.84
2023-05-01T18:41:34.236Z,16.77
2023-05-01T18:44:01.534Z,16.93
2023-05-01T18:46:28.759Z,17.13
2023-05-01T18:48:55.700Z,17.21
2023-05-01T18:51:24.358Z,15.76
2023-05-01T18:53:50.866Z,16.22
2023-05-01T18:56:17.552Z,16.28
2023-05-01T18:58:44.042Z,15.69
2023-05-01T19:01:16.464Z,16.48
2023-05-01T19:03:43.213Z,16.34
2023-05-01T19:06:10.572Z,15.98
2023-05-01T19:08:37.269Z,16.30
2023-05-01T19:11:06.284Z,17.01
2023-05-01T19:13:33.287Z,16.75
2023-05-01T19:16:02.605Z,15.75
2023-05-01T19:18:29.029Z,16.13
2023-05-01T19:20:55.534Z,16.03
2023-05-01T19:23:21.978Z,16.04
2023-05-01T19:25:49.050Z,16.58
2023-05-01T19:28:15.399Z,15.80
2023-05-01T19:30:42.163Z,16.23
2023-05-01T19:33:08.674Z,15.53
2023-05-01T19:35:35.508Z,16.55
2023-05-01T19:38:01.978Z,16.66
2023-05-01T19:40:28.690Z,16.18
2023-05-01T19:42:55.276Z,16.40
2023-05-01T19:45:21.788Z,16.35
2023-05-01T19:47:48.244Z,16.57
2023-05-01T19:50:20.794Z,16.56
2023-05-01T19:52:47.215Z,16.04
2023-05-01T19:55:14.836Z,15.59
2023-05-01T19:57:41.495Z,15.77
2023-05-01T20:00:08.825Z,16.39
2023-05-01T20:02:35.395Z,16.26
2023-05-01T20:05:02.073Z,16.83
2023-05-01T20:07:30.339Z,16.12
2023-05-01T20:09:56.998Z,16.09
2023-05-01T20:12:23.755Z,15.93
2023-05-01T20:14:50.237Z,15.72
2023-05-01T20:17:16.812Z,16.46
2023-05-01T20:19:43.728Z,16.29
2023-05-01T20:22:10.885Z,16.22
2023-05-01T20:24:37.243Z,16.03
2023-05-01T20:27:04.632Z,16.46
2023-05-01T20:29:31.253Z,15.42
2023-05-01T20:32:03.947Z,15.72
2023-05-01T20:34:31.921Z,16.23
2023-05-01T20:36:59.467Z,14.94
2023-05-01T20:39:26.182Z,15.99
2023-05-01T20:41:52.630Z,14.84
2023-05-01T20:44:19.180Z,15.27
2023-05-01T20:46:49.133Z,15.05
2023-05-01T20:49:17.318Z,15.04
2023-05-01T20:51:43.774Z,14.89
2023-05-01T20:54:10.487Z,15.27
2023-05-01T20:56:37.102Z,14.94
2023-05-01T20:59:04.307Z,14.97
2023-05-01T21:01:32.190Z,14.74
2023-05-01T21:03:59.910Z,15.20
2023-05-01T21:06:27.281Z,14.72
2023-05-01T21:08:53.946Z,14.25
2023-05-01T21:11:20.876Z,15.68
2023-05-01T21:13:47.503Z,14.62
2023-05-01T21:16:19.926Z,14.21
2023-05-01T21:18:49.642Z,14.79
2023-05-01T21:21:16.144Z,15.25
2023-05-01T21:23:47.505Z,15.32
2023-05-01T21:26:14.894Z,14.75
2023-05-01T21:28:46.568Z,15.31
2023-05-01T21:31:19.550Z,15.49
2023-05-01T21:33:46.031Z,14.69
2023-05-01T21:36:16.925Z,14.52
2023-05-01T21:38:43.524Z,15.88
2023-05-01T21:41:12.932Z,15.57
2023-05-01T21:43:39.453Z,15.75
2023-05-01T21:46:16.499Z,15.12
2023-05-01T21:48:43.365Z,15.02
2023-05-01T21:51:10.157Z,14.75
2023-05-01T21:53:40.738Z,14.36
2023-05-01T21:56:07.368Z,15.73
2023-05-01T21:58:33.861Z,15.78
2023-05-01T22:01:02.662Z,15.64
2023-05-01T22:03:29.199Z,15.51
2023-05-01T22:05:55.632Z,16.10
2023-05-01T22:08:22.875Z,15.90
2023-05-01T22:10:49.352Z,14.69
2023-05-01T22:13:16.146Z,14.33
2023-05-01T22:15:48.610Z,14.63
2023-05-01T22:18:19.370Z,14.49
2023-05-01T22:20:45.865Z,15.17
2023-05-01T22:23:12.278Z,14.82
2023-05-01T22:25:38.701Z,15.18
2023-05-01T22:28:05.975Z,14.69
2023-05-01T22:30:34.680Z,13.91
2023-05-01T22:33:01.123Z,14.27
2023-05-01T22:35:27.632Z,14.78
2023-05-01T22:37:54.018Z,14.55
2023-05-01T22:40:20.476Z,14.04
2023-05-01T22:42:47.335Z,14.69
2023-05-01T22:45:13.753Z,14.56
2023-05-01T22:47:40.146Z,14.70
2023-05-01T22:50:07.324Z,14.12
2023-05-01T22:52:33.934Z,14.28
2023-05-01T22:55:00.316Z,14.22
2023-05-01T22:57:26.836Z,13.81
2023-05-01T22:59:53.364Z,13.78
2023-05-01T23:02:19.981Z,13.71
2023-05-01T23:04:46.514Z,13.59
2023-05-01T23:07:13.848Z,14.07
2023-05-01T23:09:40.421Z,14.11
2023-05-01T23:12:07.107Z,14.30
2023-05-01T23:14:41.718Z,13.83
2023-05-01T23:17:08.092Z,13.60
2023-05-01T23:19:34.477Z,13.37
2023-05-01T23:22:09.578Z,14.55
2023-05-01T23:24:43.191Z,14.05
2023-05-01T23:27:10.342Z,14.36
2023-05-01T23:29:36.925Z,13.28
2023-05-01T23:32:03.932Z,14.25
2023-05-01T23:34:30.548Z,13.27
2023-05-01T23:36:56.937Z,13.12
2023-05-01T23:39:23.384Z,13.82
2023-05-01T23:41:50.522Z,13.33
2023-05-01T23:44:17.122Z,13.05
2023-05-01T23:46:43.674Z,13.85
2023-05-01T23:49:10.147Z,13.18
2023-05-01T23:51:39.630Z,13.26
2023-05-01T23:54:06.672Z,12.94
2023-05-01T23:56:33.204Z,13.85
2023-05-01T23:58:59.655Z,13.63
